Time;durP1;ratioP1;P1;durP2;ratioP2;P2;SDS_P1;SDS_P2;PMS_P1;PMS_P2;Temp;Humidity;BMP_temperature;BMP_pressure;BME280_temperature;BME280_humidity;BME280_pressure;Samples;Min_cycle;Max_cycle;Signal;HPM_P1;HPM_P2
2022/03/31 00:02:34;;;;;;;15.80;10.10;;;14.00;75.00;;;;;;10945558;32;20049;-70
2022/03/31 00:08:37;;;;;;;11.80;6.85;;;14.00;74.80;;;;;;10944327;32;20027;-70
2022/03/31 00:14:40;;;;;;;8.48;5.55;;;14.00;74.70;;;;;;10945651;32;20512;-69
2022/03/31 00:20:42;;;;;;;10.50;7.00;;;14.00;74.70;;;;;;10945328;32;20027;-70
2022/03/31 00:27:09;;;;;;;17.48;8.48;;;13.90;74.70;;;;;;10941049;32;20057;-70
2022/03/31 00:33:13;;;;;;;9.43;6.60;;;13.80;74.90;;;;;;10945102;32;20057;-69
2022/03/31 00:39:32;;;;;;;12.05;8.68;;;13.80;74.90;;;;;;10931326;32;20303;-70
2022/03/31 00:45:46;;;;;;;10.35;6.20;;;13.90;74.70;;;;;;10940304;32;20049;-69
2022/03/31 00:51:53;;;;;;;16.02;6.12;;;14.00;74.80;;;;;;10944389;32;20023;-69
2022/03/31 00:57:56;;;;;;;8.80;5.85;;;14.00;74.70;;;;;;10943868;32;20065;-69
2022/03/31 01:04:00;;;;;;;14.27;8.40;;;14.00;74.80;;;;;;10940566;32;20077;-69
2022/03/31 01:10:04;;;;;;;10.45;7.75;;;14.00;74.90;;;;;;10943698;32;20034;-70
2022/03/31 01:16:06;;;;;;;16.05;9.40;;;14.00;75.10;;;;;;10938957;32;20031;-69
2022/03/31 01:22:09;;;;;;;9.13;6.62;;;14.00;75.20;;;;;;10943075;32;20027;-69
2022/03/31 01:28:11;;;;;;;12.95;10.02;;;13.90;75.30;;;;;;10943026;32;20351;-69
2022/03/31 01:34:13;;;;;;;14.23;10.30;;;13.80;75.40;;;;;;10942626;32;20437;-69
2022/03/31 01:40:16;;;;;;;11.63;8.70;;;13.80;75.40;;;;;;10942617;32;20035;-69
2022/03/31 01:46:19;;;;;;;9.70;6.70;;;13.80;75.50;;;;;;10942522;32;20069;-69
2022/03/31 01:52:22;;;;;;;12.18;8.73;;;13.70;75.70;;;;;;10942301;32;20331;-69
2022/03/31 01:58:24;;;;;;;18.62;10.73;;;13.70;76.00;;;;;;10941524;32;20031;-70
2022/03/31 02:04:26;;;;;;;9.35;5.80;;;13.50;76.30;;;;;;10941298;32;20372;-69
2022/03/31 02:10:29;;;;;;;14.73;7.60;;;13.50;76.60;;;;;;10936909;32;20046;-69
2022/03/31 02:16:31;;;;;;;20.40;9.38;;;13.50;76.40;;;;;;10941141;32;20418;-69
2022/03/31 02:22:33;;;;;;;15.88;10.25;;;13.50;76.50;;;;;;10940984;32;20019;-69
2022/03/31 02:28:36;;;;;;;10.38;8.35;;;13.50;76.60;;;;;;10940785;32;20015;-69
2022/03/31 02:34:41;;;;;;;18.60;10.35;;;13.50;76.80;;;;;;10940600;32;20027;-69
2022/03/31 02:40:43;;;;;;;10.75;7.25;;;13.30;77.10;;;;;;10940725;32;20376;-69
2022/03/31 02:46:46;;;;;;;14.98;9.35;;;13.30;77.30;;;;;;10940561;32;20031;-70
2022/03/31 02:59:09;;;;;;;13.18;8.52;;;13.20;77.50;;;;;;10940341;32;20030;-69
2022/03/31 03:05:11;;;;;;;17.00;11.32;;;13.10;77.70;;;;;;10926712;32;20038;-70
2022/03/31 03:11:15;;;;;;;17.73;12.65;;;13.00;78.20;;;;;;10940082;32;20335;-70
2022/03/31 03:17:17;;;;;;;18.27;10.45;;;12.90;78.60;;;;;;10939813;32;20049;-69
2022/03/31 03:23:19;;;;;;;9.32;6.43;;;12.80;79.20;;;;;;10941934;32;20019;-70
2022/03/31 03:29:21;;;;;;;13.65;8.68;;;12.80;79.30;;;;;;10946594;32;20019;-69
2022/03/31 03:35:25;;;;;;;15.15;9.30;;;12.80;79.60;;;;;;10946341;32;20417;-69
2022/03/31 03:41:27;;;;;;;12.68;8.85;;;12.80;79.60;;;;;;10932740;32;20027;-69
2022/03/31 03:47:30;;;;;;;12.50;9.02;;;12.90;79.40;;;;;;10946089;32;20041;-69
2022/03/31 03:53:32;;;;;;;10.77;7.40;;;12.90;79.40;;;;;;10945762;32;20022;-69
2022/03/31 03:59:35;;;;;;;20.33;9.45;;;12.90;79.60;;;;;;10945597;32;20027;-69
2022/03/31 04:05:38;;;;;;;13.15;7.35;;;13.00;79.30;;;;;;10945383;32;20439;-69
2022/03/31 04:11:40;;;;;;;11.35;6.82;;;13.00;79.20;;;;;;10945121;32;20051;-69
2022/03/31 04:17:43;;;;;;;10.48;6.60;;;13.10;78.70;;;;;;10944930;32;20068;-69
2022/03/31 04:23:45;;;;;;;10.48;5.97;;;13.20;78.40;;;;;;10944839;32;20019;-69
2022/03/31 04:29:47;;;;;;;8.15;4.90;;;13.20;78.10;;;;;;10944531;32;20026;-69
2022/03/31 04:35:49;;;;;;;7.43;4.70;;;13.10;78.00;;;;;;10943477;32;20352;-69
2022/03/31 04:41:51;;;;;;;13.95;9.00;;;13.10;78.00;;;;;;10944153;32;20023;-69
2022/03/31 04:47:54;;;;;;;6.53;4.75;;;13.00;78.00;;;;;;10943815;32;20050;-69
2022/03/31 04:53:56;;;;;;;10.18;5.43;;;13.10;77.90;;;;;;10943618;32;20042;-69
2022/03/31 04:59:58;;;;;;;10.85;5.40;;;13.00;77.70;;;;;;10944005;32;20429;-69
2022/03/31 05:06:25;;;;;;;8.23;5.57;;;13.10;77.50;;;;;;10943184;32;20166;-70
2022/03/31 05:12:29;;;;;;;10.30;7.32;;;13.20;77.40;;;;;;10929737;32;20041;-70
2022/03/31 05:18:32;;;;;;;8.05;4.97;;;13.40;77.20;;;;;;10938350;32;20053;-70
2022/03/31 05:24:34;;;;;;;13.55;8.95;;;13.50;76.90;;;;;;10946324;32;20027;-70
2022/03/31 05:30:37;;;;;;;13.00;9.27;;;13.70;76.60;;;;;;10928788;32;20027;-70
2022/03/31 05:36:40;;;;;;;11.98;7.72;;;13.80;76.30;;;;;;10942484;32;20027;-70
2022/03/31 05:42:43;;;;;;;20.45;8.65;;;13.80;76.10;;;;;;10942698;32;20031;-70
2022/03/31 05:48:50;;;;;;;7.43;4.65;;;14.00;76.00;;;;;;10928220;32;20027;-70
2022/03/31 05:54:52;;;;;;;9.65;5.70;;;14.00;75.70;;;;;;10942157;32;20023;-69
2022/03/31 06:00:55;;;;;;;12.35;6.78;;;13.90;75.80;;;;;;10941955;32;20041;-70
2022/03/31 06:06:58;;;;;;;10.23;7.20;;;13.90;75.70;;;;;;10940833;32;20023;-70
2022/03/31 06:13:00;;;;;;;11.77;6.35;;;14.10;75.50;;;;;;10974693;32;20063;-69
2022/03/31 06:19:03;;;;;;;10.77;7.07;;;14.20;75.00;;;;;;10948431;32;20419;-70
2022/03/31 06:25:06;;;;;;;15.32;7.47;;;14.20;75.10;;;;;;10940724;32;20031;-70
2022/03/31 06:31:09;;;;;;;19.00;10.82;;;14.20;74.90;;;;;;10934132;32;20054;-70
2022/03/31 06:37:11;;;;;;;15.88;8.68;;;14.40;74.80;;;;;;10939307;32;20043;-70
2022/03/31 06:43:13;;;;;;;9.32;7.00;;;14.40;74.50;;;;;;10940837;32;20019;-70
2022/03/31 06:49:16;;;;;;;13.02;7.87;;;14.50;74.50;;;;;;10941035;32;20035;-70
2022/03/31 06:55:18;;;;;;;14.65;8.25;;;14.60;74.50;;;;;;10940963;32;20024;-70
2022/03/31 07:01:20;;;;;;;10.90;8.60;;;14.70;74.60;;;;;;10952652;32;20195;-70
2022/03/31 07:07:24;;;;;;;22.67;10.25;;;14.70;74.60;;;;;;10948110;32;20030;-70
2022/03/31 07:13:26;;;;;;;9.57;6.95;;;14.70;74.60;;;;;;10947438;32;20346;-70
2022/03/31 07:19:28;;;;;;;13.45;6.72;;;14.60;74.70;;;;;;10853599;27;1564266;-71
2022/03/31 07:25:30;;;;;;;13.88;10.40;;;14.60;74.70;;;;;;10872428;32;20036;-71
2022/03/31 07:31:32;;;;;;;15.43;8.38;;;14.60;74.90;;;;;;10872104;32;20062;-71
2022/03/31 07:37:34;;;;;;;12.10;8.45;;;14.60;74.90;;;;;;10871959;32;20027;-71
2022/03/31 07:43:36;;;;;;;16.17;12.15;;;14.60;74.70;;;;;;10867665;32;20031;-71
2022/03/31 07:49:49;;;;;;;20.75;9.68;;;14.60;74.70;;;;;;10871168;32;20400;-70
2022/03/31 07:55:51;;;;;;;12.27;7.93;;;14.40;75.10;;;;;;10871263;32;20067;-70
2022/03/31 08:01:58;;;;;;;16.15;8.10;;;14.30;75.50;;;;;;10867651;32;20031;-70
2022/03/31 08:08:00;;;;;;;12.60;7.65;;;14.30;75.60;;;;;;10870688;32;20193;-70
2022/03/31 08:14:02;;;;;;;15.15;8.98;;;14.50;75.60;;;;;;10866270;32;20024;-70
2022/03/31 08:20:07;;;;;;;11.48;8.48;;;14.50;75.60;;;;;;10869088;32;20027;-70
2022/03/31 08:26:37;;;;;;;16.40;8.88;;;14.50;75.80;;;;;;10866808;32;20053;-70
2022/03/31 08:33:08;;;;;;;;;;;14.30;75.90;;;;;;10870102;32;20047;-71
2022/03/31 08:39:10;;;;;;;12.10;8.50;;;14.20;76.70;;;;;;10870273;32;19941;-70
2022/03/31 08:45:54;;;;;;;12.18;9.27;;;14.10;77.50;;;;;;10869416;32;20059;-70
2022/03/31 08:52:00;;;;;;;13.00;8.85;;;14.10;77.40;;;;;;10869153;32;20301;-70
2022/03/31 08:58:02;;;;;;;17.50;9.15;;;14.00;77.60;;;;;;10868445;32;20020;-70
2022/03/31 09:04:19;;;;;;;20.30;9.20;;;14.20;77.70;;;;;;10866654;32;20016;-70
2022/03/31 09:11:26;;;;;;;20.92;9.85;;;14.40;77.30;;;;;;10868319;32;20089;-70
2022/03/31 09:17:28;;;;;;;8.95;4.93;;;14.50;77.10;;;;;;10752614;33;20048;-70
2022/03/31 09:23:39;;;;;;;8.88;4.70;;;14.60;76.90;;;;;;10717511;33;20056;-70
2022/03/31 09:29:41;;;;;;;13.52;6.70;;;14.70;76.70;;;;;;10716903;33;20064;-70
2022/03/31 09:36:12;;;;;;;14.00;6.82;;;14.70;76.80;;;;;;10716138;33;20405;-70
2022/03/31 09:42:17;;;;;;;11.43;6.22;;;14.50;76.80;;;;;;10752100;33;20048;-71
2022/03/31 09:48:22;;;;;;;11.25;7.55;;;14.80;77.10;;;;;;10779384;32;20024;-71
2022/03/31 09:54:29;;;;;;;11.07;5.30;;;15.00;76.50;;;;;;10821102;33;20032;-71
2022/03/31 10:00:45;;;;;;;7.72;5.03;;;15.20;76.20;;;;;;10825604;32;20050;-71
2022/03/31 10:06:49;;;;;;;11.07;7.60;;;15.20;76.00;;;;;;10825724;32;20024;-70
2022/03/31 10:13:04;;;;;;;7.93;4.30;;;15.20;76.10;;;;;;10824451;32;20052;-71
2022/03/31 10:19:38;;;;;;;6.97;5.30;;;15.10;76.50;;;;;;10825357;32;20381;-70
2022/03/31 10:25:41;;;;;;;11.27;5.07;;;15.20;76.40;;;;;;10824986;33;20051;-70
2022/03/31 10:31:46;;;;;;;6.97;4.45;;;15.20;76.10;;;;;;10814633;32;20020;-71
2022/03/31 10:37:48;;;;;;;6.75;3.78;;;15.20;76.20;;;;;;10832771;32;20063;-70
2022/03/31 10:43:52;;;;;;;8.90;5.05;;;15.20;76.10;;;;;;10833684;32;20032;-71
2022/03/31 10:49:54;;;;;;;5.35;3.25;;;15.10;75.90;;;;;;10832196;32;20024;-70
2022/03/31 10:55:58;;;;;;;5.68;3.03;;;15.20;76.60;;;;;;10831879;32;20032;-70
2022/03/31 11:02:40;;;;;;;5.78;2.33;;;15.30;76.00;;;;;;10831805;32;20024;-71
2022/03/31 11:09:18;;;;;;;10.20;4.53;;;15.20;75.90;;;;;;10830997;32;20051;-71
2022/03/31 11:15:24;;;;;;;5.12;3.40;;;15.30;76.00;;;;;;10818800;32;20035;-71
2022/03/31 11:21:37;;;;;;;6.93;3.15;;;15.10;76.00;;;;;;10830421;32;20047;-72
2022/03/31 11:27:42;;;;;;;3.42;1.92;;;15.00;76.30;;;;;;10831186;32;20024;-71
2022/03/31 11:33:45;;;;;;;5.45;2.22;;;14.90;76.60;;;;;;10830571;32;20035;-71
2022/03/31 11:39:47;;;;;;;3.35;1.85;;;15.00;76.70;;;;;;10832243;32;20313;-72
2022/03/31 11:45:56;;;;;;;4.32;2.58;;;14.90;76.50;;;;;;10818473;32;20028;-71
2022/03/31 11:52:05;;;;;;;2.05;1.42;;;14.80;75.60;;;;;;10830895;32;20032;-71
2022/03/31 11:58:08;;;;;;;2.33;1.55;;;14.80;76.30;;;;;;10830499;32;20027;-72
2022/03/31 12:04:22;;;;;;;3.90;2.55;;;14.70;76.10;;;;;;10817950;32;20385;-70
2022/03/31 12:10:25;;;;;;;2.92;1.50;;;14.70;76.50;;;;;;10834368;32;20032;-71
2022/03/31 12:16:27;;;;;;;2.25;1.90;;;14.70;76.10;;;;;;10833543;32;20054;-71
2022/03/31 12:22:33;;;;;;;4.28;1.98;;;14.60;76.00;;;;;;10829559;32;20416;-71
2022/03/31 12:28:41;;;;;;;5.32;1.60;;;14.50;75.70;;;;;;10832946;32;20024;-71
2022/03/31 12:34:56;;;;;;;3.28;1.42;;;14.40;76.30;;;;;;10832473;32;20427;-71
2022/03/31 12:40:59;;;;;;;1.27;1.17;;;14.50;76.90;;;;;;10832676;32;20028;-71
2022/03/31 12:47:02;;;;;;;1.12;0.90;;;14.50;77.00;;;;;;10832302;32;20055;-71
2022/03/31 12:53:04;;;;;;;2.72;1.87;;;14.60;76.90;;;;;;10832228;32;20024;-72
2022/03/31 12:59:16;;;;;;;1.35;1.08;;;14.60;76.60;;;;;;10830934;32;20046;-70
2022/03/31 13:05:24;;;;;;;5.60;2.40;;;14.60;77.00;;;;;;10830381;32;20395;-72
2022/03/31 13:11:26;;;;;;;;;;;14.70;76.60;;;;;;10829872;32;20020;-73
2022/03/31 13:17:30;;;;;;;2.78;1.75;;;14.70;76.60;;;;;;10837966;32;19934;-70
2022/03/31 13:23:32;;;;;;;1.98;1.65;;;14.70;76.80;;;;;;10867195;32;20028;-73
2022/03/31 13:29:35;;;;;;;2.35;1.83;;;14.80;76.80;;;;;;10862615;32;20019;-72
2022/03/31 13:35:38;;;;;;;2.72;1.90;;;14.90;76.60;;;;;;10866568;32;20032;-70
2022/03/31 13:41:41;;;;;;;2.42;1.77;;;15.00;76.20;;;;;;10866150;32;20019;-72
2022/03/31 13:47:46;;;;;;;2.22;1.77;;;15.00;76.20;;;;;;10876580;32;20316;-70
2022/03/31 13:53:53;;;;;;;1.83;1.45;;;15.00;76.40;;;;;;10864705;32;20406;-70
2022/03/31 14:06:18;;;;;;;2.58;1.95;;;15.20;76.00;;;;;;10865193;32;20070;-70
2022/03/31 14:12:22;;;;;;;2.28;0.93;;;15.00;75.90;;;;;;10865154;32;20028;-70
2022/03/31 14:18:25;;;;;;;4.00;2.25;;;15.00;76.50;;;;;;10865015;32;20027;-70
2022/03/31 14:24:28;;;;;;;2.03;1.33;;;15.10;76.50;;;;;;10864835;32;20036;-70
2022/03/31 14:30:30;;;;;;;1.85;1.27;;;15.10;76.60;;;;;;10864740;32;20031;-70
2022/03/31 14:36:36;;;;;;;2.22;1.33;;;15.00;76.60;;;;;;10862355;32;20101;-70
2022/03/31 14:42:39;;;;;;;1.62;1.35;;;15.10;76.60;;;;;;10862127;32;20045;-71
2022/03/31 14:48:42;;;;;;;1.10;0.80;;;15.00;76.50;;;;;;10863024;32;20094;-70
2022/03/31 14:54:45;;;;;;;2.40;1.37;;;14.90;77.00;;;;;;10864289;32;20047;-70
2022/03/31 15:00:48;;;;;;;1.48;0.80;;;15.10;77.00;;;;;;10864395;32;20046;-71
2022/03/31 15:06:50;;;;;;;0.85;0.82;;;15.20;76.70;;;;;;10863404;32;20023;-70
2022/03/31 15:19:39;;;;;;;1.73;0.90;;;15.30;76.80;;;;;;10880990;27;20035;-71
2022/03/31 15:25:41;;;;;;;1.65;0.80;;;15.30;76.90;;;;;;10906282;32;20081;-71
2022/03/31 15:31:45;;;;;;;2.47;1.30;;;15.30;77.20;;;;;;10904903;32;20417;-71
2022/03/31 15:37:47;;;;;;;1.12;1.02;;;15.50;77.20;;;;;;10905622;32;20027;-70
2022/03/31 15:43:50;;;;;;;1.55;0.90;;;15.70;77.10;;;;;;10902756;32;20023;-70
2022/03/31 15:50:04;;;;;;;0.98;0.85;;;15.90;77.10;;;;;;10906545;32;20078;-70
2022/03/31 15:56:06;;;;;;;1.60;1.30;;;16.30;76.50;;;;;;10906358;32;20022;-70
2022/03/31 16:08:31;;;;;;;2.17;1.48;;;16.30;76.80;;;;;;10905719;32;20046;-70
2022/03/31 16:14:33;;;;;;;0.77;0.77;;;17.30;75.50;;;;;;10906407;32;20430;-70
2022/03/31 16:20:35;;;;;;;1.33;1.12;;;18.10;74.20;;;;;;10907246;32;20019;-70
2022/03/31 16:26:50;;;;;;;5.25;1.37;;;18.70;73.50;;;;;;10907354;32;20023;-70
2022/03/31 16:32:52;;;;;;;1.70;1.08;;;19.00;72.70;;;;;;10902869;32;20077;-70
2022/03/31 16:38:55;;;;;;;1.98;1.45;;;19.00;72.10;;;;;;10906789;32;20054;-70
2022/03/31 16:44:57;;;;;;;1.60;1.12;;;19.70;71.80;;;;;;10906518;32;20019;-70
2022/03/31 16:51:00;;;;;;;1.50;1.35;;;20.20;69.70;;;;;;10906352;32;20046;-71
2022/03/31 16:57:04;;;;;;;2.17;1.50;;;19.50;70.20;;;;;;10906085;32;20055;-71
2022/03/31 17:03:06;;;;;;;2.15;1.62;;;18.50;71.50;;;;;;10906017;32;20031;-70
2022/03/31 17:09:09;;;;;;;4.10;1.85;;;17.80;72.50;;;;;;10896286;32;20069;-71
2022/03/31 17:15:11;;;;;;;2.97;1.75;;;17.30;73.00;;;;;;10903493;32;20057;-70
2022/03/31 17:21:27;;;;;;;3.35;1.85;;;16.90;73.40;;;;;;10852211;32;20380;-70
2022/03/31 17:27:40;;;;;;;4.12;2.47;;;16.70;73.40;;;;;;10864507;32;20062;-71
2022/03/31 17:33:42;;;;;;;5.43;2.95;;;16.50;73.30;;;;;;10862648;32;20526;-71
2022/03/31 17:39:54;;;;;;;4.28;2.85;;;16.20;73.40;;;;;;10864146;32;20032;-71
2022/03/31 17:45:57;;;;;;;3.62;2.20;;;16.00;73.60;;;;;;10863884;32;20055;-71
2022/03/31 17:52:01;;;;;;;3.65;2.50;;;15.70;74.00;;;;;;10894006;32;20059;-71
2022/03/31 17:58:06;;;;;;;4.80;2.55;;;15.50;74.20;;;;;;10900061;32;20026;-71
2022/03/31 18:04:58;;;;;;;4.28;2.85;;;15.40;74.30;;;;;;10903969;32;20042;-71
2022/03/31 18:11:04;;;;;;;4.37;3.08;;;15.30;74.30;;;;;;10716428;33;20057;-71
2022/03/31 18:17:07;;;;;;;4.70;3.87;;;15.20;74.40;;;;;;10716030;33;20057;-71
2022/03/31 18:23:09;;;;;;;4.53;2.87;;;15.00;74.40;;;;;;10716772;33;20039;-71
2022/03/31 18:33:50;;;;;;;4.65;3.00;;;14.90;74.80;;;;;;10715882;33;20319;-71
2022/03/31 18:35:38;;;;;;;4.85;3.47;;;14.80;74.70;;;;;;10681692;33;20034;-72
2022/03/31 18:41:44;;;;;;;6.20;4.32;;;14.80;74.70;;;;;;10732464;33;20319;-72
2022/03/31 18:47:51;;;;;;;6.18;5.12;;;14.70;74.80;;;;;;10858626;32;20077;-72
2022/03/31 18:53:55;;;;;;;6.97;4.75;;;14.70;74.70;;;;;;10904415;32;20477;-72
2022/03/31 18:59:59;;;;;;;7.25;5.72;;;14.60;74.70;;;;;;10910576;32;20053;-72
2022/03/31 19:12:21;;;;;;;9.05;6.68;;;14.60;74.90;;;;;;10910970;32;20027;-71
2022/03/31 19:18:23;;;;;;;8.73;6.53;;;14.50;74.90;;;;;;10910044;32;20316;-71
2022/03/31 19:24:30;;;;;;;8.35;6.72;;;14.40;74.80;;;;;;10896586;32;20097;-71
2022/03/31 19:30:32;;;;;;;7.93;6.62;;;14.30;74.90;;;;;;10906708;32;20050;-71
2022/03/31 19:36:34;;;;;;;9.23;7.20;;;14.40;74.90;;;;;;10909466;32;20015;-71
2022/03/31 19:42:40;;;;;;;6.43;5.22;;;14.30;74.90;;;;;;10905167;32;20035;-71
2022/03/31 19:48:42;;;;;;;7.87;6.20;;;14.00;75.30;;;;;;10909012;32;20431;-71
2022/03/31 19:54:45;;;;;;;6.78;4.72;;;13.90;76.00;;;;;;10894156;32;20050;-71
2022/03/31 20:00:47;;;;;;;8.93;5.53;;;14.00;75.80;;;;;;10908459;32;20042;-71
2022/03/31 20:06:50;;;;;;;16.33;7.07;;;14.10;75.50;;;;;;10907941;32;20023;-71
2022/03/31 20:12:52;;;;;;;7.30;5.45;;;14.10;75.50;;;;;;10908069;32;20050;-71
2022/03/31 20:18:54;;;;;;;9.02;6.07;;;14.10;75.50;;;;;;10894659;32;20348;-71
2022/03/31 20:24:56;;;;;;;7.37;5.45;;;13.80;75.90;;;;;;10906076;32;20018;-71
2022/03/31 20:30:59;;;;;;;8.23;6.00;;;13.90;76.00;;;;;;10894295;32;20289;-71
2022/03/31 20:37:12;;;;;;;9.60;7.87;;;14.00;75.60;;;;;;10903285;32;20035;-71
2022/03/31 20:43:14;;;;;;;10.30;6.45;;;14.20;75.60;;;;;;10907262;32;20057;-71
2022/03/31 20:49:16;;;;;;;11.73;8.15;;;14.20;75.40;;;;;;10907008;32;20379;-71
2022/03/31 20:55:18;;;;;;;8.52;7.03;;;14.30;75.50;;;;;;10906794;32;20062;-71
2022/03/31 21:01:21;;;;;;;8.00;5.32;;;14.30;75.30;;;;;;10906577;32;20023;-71
2022/03/31 21:07:23;;;;;;;8.13;5.37;;;14.10;75.50;;;;;;10901653;32;20063;-71
2022/03/31 21:13:25;;;;;;;7.57;6.18;;;14.00;75.60;;;;;;10901909;32;20430;-71
2022/03/31 21:19:28;;;;;;;9.02;6.47;;;14.00;75.70;;;;;;10902164;32;20035;-71
2022/03/31 21:25:31;;;;;;;10.27;6.15;;;13.90;75.70;;;;;;10905584;32;20279;-71
2022/03/31 21:31:34;;;;;;;13.30;6.37;;;13.90;75.60;;;;;;10905598;32;20074;-71
2022/03/31 21:37:37;;;;;;;9.57;6.95;;;13.90;75.80;;;;;;10905186;32;20022;-71
2022/03/31 21:43:39;;;;;;;9.32;6.37;;;13.90;75.60;;;;;;10905108;32;20326;-71
2022/03/31 21:49:43;;;;;;;8.95;6.07;;;13.70;75.80;;;;;;10904964;32;20046;-71
2022/03/31 21:55:45;;;;;;;7.45;5.00;;;13.50;76.40;;;;;;10904703;32;20016;-71
2022/03/31 22:01:47;;;;;;;6.75;5.57;;;13.30;76.70;;;;;;10904585;32;20042;-71
2022/03/31 22:07:50;;;;;;;8.45;6.35;;;13.30;76.90;;;;;;10904413;32;20024;-71
2022/03/31 22:13:52;;;;;;;10.48;7.72;;;13.70;76.70;;;;;;10904211;32;20097;-71
2022/03/31 22:19:54;;;;;;;11.45;8.98;;;13.80;76.30;;;;;;10904107;32;20485;-71
2022/03/31 22:25:58;;;;;;;8.77;7.05;;;13.90;76.30;;;;;;10904264;32;20093;-71
2022/03/31 22:32:01;;;;;;;8.40;6.12;;;13.90;76.00;;;;;;10911160;32;20039;-71
2022/03/31 22:38:03;;;;;;;9.75;7.85;;;13.90;76.00;;;;;;10911438;32;20035;-71
2022/03/31 22:44:07;;;;;;;9.25;7.75;;;13.90;76.10;;;;;;10911393;32;20020;-71
2022/03/31 22:50:09;;;;;;;9.82;7.12;;;13.90;75.80;;;;;;10908623;32;20020;-71
2022/03/31 22:56:12;;;;;;;12.15;7.28;;;13.90;75.70;;;;;;10910865;32;20053;-71
2022/03/31 23:02:15;;;;;;;6.53;5.68;;;13.80;75.60;;;;;;10897654;32;20374;-71
2022/03/31 23:08:18;;;;;;;9.25;6.55;;;13.80;75.70;;;;;;10910516;32;20027;-71
2022/03/31 23:14:20;;;;;;;9.40;6.78;;;13.60;76.10;;;;;;10906181;32;20027;-71
2022/03/31 23:20:22;;;;;;;8.82;6.82;;;13.60;76.10;;;;;;10935727;27;20053;-71
2022/03/31 23:26:26;;;;;;;11.63;9.95;;;13.70;76.10;;;;;;10947685;32;20031;-71
2022/03/31 23:32:28;;;;;;;12.98;9.85;;;13.70;76.10;;;;;;10933979;32;20027;-71
2022/03/31 23:38:30;;;;;;;12.55;11.23;;;13.70;75.90;;;;;;10946426;32;20453;-71
2022/03/31 23:44:32;;;;;;;10.77;7.87;;;13.80;75.90;;;;;;10946982;32;20027;-71
2022/03/31 23:50:34;;;;;;;11.43;7.45;;;13.80;76.10;;;;;;10946779;32;20059;-71
2022/03/31 23:56:36;;;;;;;10.13;7.15;;;13.80;76.00;;;;;;10946629;32;20359;-71
